sensor_id;sensor_type;location;lat;lon;timestamp;temperature;humidity
9486;DHT22;4781;48.776;9.200;2022-07-29T00:02:25;19.70;99.90
9486;DHT22;4781;48.776;9.200;2022-07-29T00:04:54;19.70;99.90
9486;DHT22;4781;48.776;9.200;2022-07-29T00:07:22;19.80;99.90
9486;DHT22;4781;48.776;9.200;2022-07-29T00:09:51;19.70;99.90
9486;DHT22;4781;48.776;9.200;2022-07-29T00:12:20;19.80;99.90
9486;DHT22;4781;48.776;9.200;2022-07-29T00:14:51;19.70;99.90
9486;DHT22;4781;48.776;9.200;2022-07-29T00:17:22;19.70;99.90
9486;DHT22;4781;48.776;9.200;2022-07-29T00:19:51;19.70;99.90
9486;DHT22;4781;48.776;9.200;2022-07-29T00:22:20;19.70;99.90
9486;DHT22;4781;48.776;9.200;2022-07-29T00:24:49;19.70;99.90
9486;DHT22;4781;48.776;9.200;2022-07-29T00:27:17;19.70;99.90
9486;DHT22;4781;48.776;9.200;2022-07-29T00:29:46;19.70;99.90
9486;DHT22;4781;48.776;9.200;2022-07-29T00:32:14;19.60;99.90
9486;DHT22;4781;48.776;9.200;2022-07-29T00:34:43;19.60;99.90
9486;DHT22;4781;48.776;9.200;2022-07-29T00:37:29;19.60;99.90
9486;DHT22;4781;48.776;9.200;2022-07-29T00:39:58;19.60;99.90
9486;DHT22;4781;48.776;9.200;2022-07-29T00:42:26;19.50;99.90
9486;DHT22;4781;48.776;9.200;2022-07-29T00:44:55;19.50;99.90
9486;DHT22;4781;48.776;9.200;2022-07-29T00:47:23;19.50;99.90
9486;DHT22;4781;48.776;9.200;2022-07-29T00:49:52;19.50;99.90
9486;DHT22;4781;48.776;9.200;2022-07-29T00:52:20;19.50;99.90
9486;DHT22;4781;48.776;9.200;2022-07-29T00:54:49;19.50;99.90
9486;DHT22;4781;48.776;9.200;2022-07-29T00:57:17;19.50;99.90
9486;DHT22;4781;48.776;9.200;2022-07-29T00:59:46;19.40;99.90
9486;DHT22;4781;48.776;9.200;2022-07-29T01:02:14;19.50;99.90
9486;DHT22;4781;48.776;9.200;2022-07-29T01:04:42;19.50;99.90
9486;DHT22;4781;48.776;9.200;2022-07-29T01:07:11;19.50;99.90
9486;DHT22;4781;48.776;9.200;2022-07-29T01:09:41;19.50;99.90
9486;DHT22;4781;48.776;9.200;2022-07-29T01:12:10;19.50;99.90
9486;DHT22;4781;48.776;9.200;2022-07-29T01:14:41;19.40;99.90
9486;DHT22;4781;48.776;9.200;2022-07-29T01:17:17;19.40;99.90
9486;DHT22;4781;48.776;9.200;2022-07-29T01:19:48;19.40;99.90
9486;DHT22;4781;48.776;9.200;2022-07-29T01:37:46;19.30;99.90
9486;DHT22;4781;48.776;9.200;2022-07-29T01:41:12;19.30;99.90
9486;DHT22;4781;48.776;9.200;2022-07-29T01:43:39;19.20;99.90
9486;DHT22;4781;48.776;9.200;2022-07-29T01:46:11;19.20;99.90
9486;DHT22;4781;48.776;9.200;2022-07-29T01:48:45;19.20;99.90
9486;DHT22;4781;48.776;9.200;2022-07-29T01:51:21;19.20;99.90
9486;DHT22;4781;48.776;9.200;2022-07-29T01:54:01;19.10;99.90
9486;DHT22;4781;48.776;9.200;2022-07-29T01:56:31;19.10;99.90
9486;DHT22;4781;48.776;9.200;2022-07-29T01:59:02;19.10;99.90
9486;DHT22;4781;48.776;9.200;2022-07-29T02:01:33;19.10;99.90
9486;DHT22;4781;48.776;9.200;2022-07-29T02:04:04;19.10;99.90
9486;DHT22;4781;48.776;9.200;2022-07-29T02:06:34;19.00;99.90
9486;DHT22;4781;48.776;9.200;2022-07-29T02:09:06;19.00;99.90
9486;DHT22;4781;48.776;9.200;2022-07-29T02:11:36;19.00;99.90
9486;DHT22;4781;48.776;9.200;2022-07-29T02:14:07;19.00;99.90
9486;DHT22;4781;48.776;9.200;2022-07-29T02:16:38;19.00;99.90
9486;DHT22;4781;48.776;9.200;2022-07-29T02:19:09;19.00;99.90
9486;DHT22;4781;48.776;9.200;2022-07-29T02:21:38;19.00;99.90
9486;DHT22;4781;48.776;9.200;2022-07-29T02:24:10;18.90;99.90
9486;DHT22;4781;48.776;9.200;2022-07-29T02:26:41;18.90;99.90
9486;DHT22;4781;48.776;9.200;2022-07-29T02:29:10;18.90;99.90
9486;DHT22;4781;48.776;9.200;2022-07-29T02:31:41;18.90;99.90
9486;DHT22;4781;48.776;9.200;2022-07-29T02:34:14;18.80;99.90
9486;DHT22;4781;48.776;9.200;2022-07-29T02:36:44;18.80;99.90
9486;DHT22;4781;48.776;9.200;2022-07-29T02:39:14;18.80;99.90
9486;DHT22;4781;48.776;9.200;2022-07-29T02:41:45;18.80;99.90
9486;DHT22;4781;48.776;9.200;2022-07-29T02:44:17;18.80;99.90
9486;DHT22;4781;48.776;9.200;2022-07-29T02:47:10;18.80;99.90
9486;DHT22;4781;48.776;9.200;2022-07-29T02:51:01;18.80;99.90
9486;DHT22;4781;48.776;9.200;2022-07-29T02:52:44;18.80;99.90
9486;DHT22;4781;48.776;9.200;2022-07-29T02:55:26;18.80;99.90
9486;DHT22;4781;48.776;9.200;2022-07-29T02:58:17;18.80;99.90
9486;DHT22;4781;48.776;9.200;2022-07-29T03:03:42;18.70;99.90
9486;DHT22;4781;48.776;9.200;2022-07-29T03:06:13;18.60;99.90
9486;DHT22;4781;48.776;9.200;2022-07-29T03:08:44;18.50;99.90
9486;DHT22;4781;48.776;9.200;2022-07-29T03:11:14;18.50;99.90
9486;DHT22;4781;48.776;9.200;2022-07-29T03:13:44;18.50;99.90
9486;DHT22;4781;48.776;9.200;2022-07-29T03:16:13;18.50;99.90
9486;DHT22;4781;48.776;9.200;2022-07-29T03:18:42;18.50;99.90
9486;DHT22;4781;48.776;9.200;2022-07-29T03:21:11;18.40;99.90
9486;DHT22;4781;48.776;9.200;2022-07-29T03:23:44;18.40;99.90
9486;DHT22;4781;48.776;9.200;2022-07-29T03:26:12;18.50;99.90
9486;DHT22;4781;48.776;9.200;2022-07-29T03:28:41;18.50;99.90
9486;DHT22;4781;48.776;9.200;2022-07-29T03:31:09;18.50;99.90
9486;DHT22;4781;48.776;9.200;2022-07-29T03:33:38;18.50;99.90
9486;DHT22;4781;48.776;9.200;2022-07-29T03:36:06;18.40;99.90
9486;DHT22;4781;48.776;9.200;2022-07-29T03:38:36;18.40;99.90
9486;DHT22;4781;48.776;9.200;2022-07-29T03:41:07;18.40;99.90
9486;DHT22;4781;48.776;9.200;2022-07-29T03:43:38;18.40;99.90
9486;DHT22;4781;48.776;9.200;2022-07-29T03:46:09;18.40;99.90
9486;DHT22;4781;48.776;9.200;2022-07-29T03:48:41;18.30;99.90
9486;DHT22;4781;48.776;9.200;2022-07-29T03:51:12;18.30;99.90
9486;DHT22;4781;48.776;9.200;2022-07-29T03:53:41;18.20;99.90
9486;DHT22;4781;48.776;9.200;2022-07-29T03:56:10;18.30;99.90
9486;DHT22;4781;48.776;9.200;2022-07-29T03:58:40;18.30;99.90
9486;DHT22;4781;48.776;9.200;2022-07-29T04:01:09;18.30;99.90
9486;DHT22;4781;48.776;9.200;2022-07-29T04:03:39;18.30;99.90
9486;DHT22;4781;48.776;9.200;2022-07-29T04:06:07;18.40;99.90
9486;DHT22;4781;48.776;9.200;2022-07-29T04:08:36;18.30;99.90
9486;DHT22;4781;48.776;9.200;2022-07-29T04:11:05;18.40;99.90
9486;DHT22;4781;48.776;9.200;2022-07-29T04:13:34;18.40;99.90
9486;DHT22;4781;48.776;9.200;2022-07-29T04:16:03;18.30;99.90
9486;DHT22;4781;48.776;9.200;2022-07-29T04:18:31;18.40;99.90
9486;DHT22;4781;48.776;9.200;2022-07-29T04:21:00;18.30;99.90
9486;DHT22;4781;48.776;9.200;2022-07-29T04:23:30;18.30;99.90
9486;DHT22;4781;48.776;9.200;2022-07-29T04:26:00;18.40;99.90
9486;DHT22;4781;48.776;9.200;2022-07-29T04:28:28;18.30;99.90
9486;DHT22;4781;48.776;9.200;2022-07-29T04:30:57;18.30;99.90
9486;DHT22;4781;48.776;9.200;2022-07-29T04:33:25;18.40;99.90
9486;DHT22;4781;48.776;9.200;2022-07-29T04:36:13;18.30;99.90
9486;DHT22;4781;48.776;9.200;2022-07-29T04:38:41;18.40;99.90
9486;DHT22;4781;48.776;9.200;2022-07-29T04:41:10;18.40;99.90
9486;DHT22;4781;48.776;9.200;2022-07-29T04:43:38;18.40;99.90
9486;DHT22;4781;48.776;9.200;2022-07-29T04:46:07;18.40;99.90
9486;DHT22;4781;48.776;9.200;2022-07-29T04:48:35;18.40;99.90
9486;DHT22;4781;48.776;9.200;2022-07-29T04:51:03;18.40;99.90
9486;DHT22;4781;48.776;9.200;2022-07-29T04:53:32;18.50;99.90
9486;DHT22;4781;48.776;9.200;2022-07-29T04:56:00;18.50;99.90
9486;DHT22;4781;48.776;9.200;2022-07-29T04:58:29;18.60;99.90
9486;DHT22;4781;48.776;9.200;2022-07-29T05:00:57;18.70;99.90
9486;DHT22;4781;48.776;9.200;2022-07-29T05:03:26;18.70;99.90
9486;DHT22;4781;48.776;9.200;2022-07-29T05:05:54;18.80;99.90
9486;DHT22;4781;48.776;9.200;2022-07-29T05:08:22;18.80;99.90
9486;DHT22;4781;48.776;9.200;2022-07-29T05:10:51;18.80;99.90
9486;DHT22;4781;48.776;9.200;2022-07-29T05:13:19;18.90;99.90
9486;DHT22;4781;48.776;9.200;2022-07-29T05:15:48;19.00;99.90
9486;DHT22;4781;48.776;9.200;2022-07-29T05:18:16;19.10;99.90
9486;DHT22;4781;48.776;9.200;2022-07-29T05:20:45;19.20;99.90
9486;DHT22;4781;48.776;9.200;2022-07-29T05:23:13;19.30;99.90
9486;DHT22;4781;48.776;9.200;2022-07-29T05:25:42;19.40;99.90
9486;DHT22;4781;48.776;9.200;2022-07-29T05:28:10;19.50;99.90
9486;DHT22;4781;48.776;9.200;2022-07-29T05:30:39;19.50;99.90
9486;DHT22;4781;48.776;9.200;2022-07-29T05:33:07;19.60;99.90
9486;DHT22;4781;48.776;9.200;2022-07-29T05:35:36;19.70;99.90
9486;DHT22;4781;48.776;9.200;2022-07-29T05:38:04;19.70;99.90
9486;DHT22;4781;48.776;9.200;2022-07-29T05:40:33;19.90;99.90
9486;DHT22;4781;48.776;9.200;2022-07-29T05:43:01;20.00;99.90
9486;DHT22;4781;48.776;9.200;2022-07-29T05:45:29;20.10;99.90
9486;DHT22;4781;48.776;9.200;2022-07-29T05:47:58;20.30;99.90
9486;DHT22;4781;48.776;9.200;2022-07-29T05:50:27;20.40;99.90
9486;DHT22;4781;48.776;9.200;2022-07-29T05:52:55;20.60;99.90
9486;DHT22;4781;48.776;9.200;2022-07-29T05:55:23;20.60;99.90
9486;DHT22;4781;48.776;9.200;2022-07-29T05:57:53;20.70;99.90
9486;DHT22;4781;48.776;9.200;2022-07-29T06:00:21;20.90;99.90
9486;DHT22;4781;48.776;9.200;2022-07-29T06:02:49;21.10;99.90
9486;DHT22;4781;48.776;9.200;2022-07-29T06:05:18;21.30;99.90
9486;DHT22;4781;48.776;9.200;2022-07-29T06:07:46;21.80;99.90
9486;DHT22;4781;48.776;9.200;2022-07-29T06:10:15;23.40;99.90
9486;DHT22;4781;48.776;9.200;2022-07-29T06:12:43;24.60;99.90
9486;DHT22;4781;48.776;9.200;2022-07-29T06:15:11;25.30;99.90
9486;DHT22;4781;48.776;9.200;2022-07-29T06:17:40;25.10;99.90
9486;DHT22;4781;48.776;9.200;2022-07-29T06:20:09;25.00;99.90
9486;DHT22;4781;48.776;9.200;2022-07-29T06:22:37;24.50;99.90
9486;DHT22;4781;48.776;9.200;2022-07-29T06:25:06;23.40;99.90
9486;DHT22;4781;48.776;9.200;2022-07-29T06:27:35;22.70;99.90
9486;DHT22;4781;48.776;9.200;2022-07-29T06:30:05;22.60;99.90
9486;DHT22;4781;48.776;9.200;2022-07-29T06:32:35;22.80;99.90
9486;DHT22;4781;48.776;9.200;2022-07-29T06:35:03;23.00;99.90
9486;DHT22;4781;48.776;9.200;2022-07-29T06:37:32;23.20;99.90
9486;DHT22;4781;48.776;9.200;2022-07-29T06:40:01;23.20;99.90
9486;DHT22;4781;48.776;9.200;2022-07-29T06:42:48;23.30;99.90
9486;DHT22;4781;48.776;9.200;2022-07-29T06:45:17;23.50;99.90
9486;DHT22;4781;48.776;9.200;2022-07-29T06:47:45;23.60;99.90
9486;DHT22;4781;48.776;9.200;2022-07-29T06:50:15;23.70;99.90
9486;DHT22;4781;48.776;9.200;2022-07-29T06:52:43;23.90;99.90
9486;DHT22;4781;48.776;9.200;2022-07-29T06:55:11;23.60;99.90
9486;DHT22;4781;48.776;9.200;2022-07-29T06:57:40;23.50;99.90
9486;DHT22;4781;48.776;9.200;2022-07-29T07:00:09;23.40;99.90
9486;DHT22;4781;48.776;9.200;2022-07-29T07:02:38;23.40;99.90
9486;DHT22;4781;48.776;9.200;2022-07-29T07:05:07;23.40;99.90
9486;DHT22;4781;48.776;9.200;2022-07-29T07:07:35;23.50;99.90
9486;DHT22;4781;48.776;9.200;2022-07-29T07:10:04;23.80;99.90
9486;DHT22;4781;48.776;9.200;2022-07-29T07:12:33;23.50;99.90
9486;DHT22;4781;48.776;9.200;2022-07-29T07:15:02;23.50;99.90
9486;DHT22;4781;48.776;9.200;2022-07-29T07:17:30;23.50;99.90
9486;DHT22;4781;48.776;9.200;2022-07-29T07:19:59;23.60;99.90
9486;DHT22;4781;48.776;9.200;2022-07-29T07:22:27;23.80;99.90
9486;DHT22;4781;48.776;9.200;2022-07-29T07:24:55;23.80;99.90
9486;DHT22;4781;48.776;9.200;2022-07-29T07:27:24;23.70;99.90
9486;DHT22;4781;48.776;9.200;2022-07-29T07:29:53;23.80;99.90
9486;DHT22;4781;48.776;9.200;2022-07-29T07:32:22;24.00;99.90
9486;DHT22;4781;48.776;9.200;2022-07-29T07:34:50;24.10;99.90
9486;DHT22;4781;48.776;9.200;2022-07-29T07:37:18;24.10;99.90
9486;DHT22;4781;48.776;9.200;2022-07-29T07:39:47;24.10;99.90
9486;DHT22;4781;48.776;9.200;2022-07-29T07:42:15;24.10;99.90
9486;DHT22;4781;48.776;9.200;2022-07-29T07:44:44;23.90;99.90
9486;DHT22;4781;48.776;9.200;2022-07-29T07:47:15;23.70;99.90
9486;DHT22;4781;48.776;9.200;2022-07-29T07:49:46;23.80;99.90
9486;DHT22;4781;48.776;9.200;2022-07-29T07:52:16;23.80;99.90
9486;DHT22;4781;48.776;9.200;2022-07-29T07:54:45;23.80;99.90
9486;DHT22;4781;48.776;9.200;2022-07-29T07:57:14;23.90;99.90
9486;DHT22;4781;48.776;9.200;2022-07-29T07:59:43;24.20;99.90
9486;DHT22;4781;48.776;9.200;2022-07-29T08:02:12;24.40;99.90
9486;DHT22;4781;48.776;9.200;2022-07-29T08:04:40;24.70;99.90
9486;DHT22;4781;48.776;9.200;2022-07-29T08:07:09;24.90;99.90
9486;DHT22;4781;48.776;9.200;2022-07-29T08:09:37;25.10;99.90
9486;DHT22;4781;48.776;9.200;2022-07-29T08:12:06;25.10;99.90
9486;DHT22;4781;48.776;9.200;2022-07-29T08:14:35;25.30;99.90
9486;DHT22;4781;48.776;9.200;2022-07-29T08:17:03;25.40;99.90
9486;DHT22;4781;48.776;9.200;2022-07-29T08:19:32;25.50;99.90
9486;DHT22;4781;48.776;9.200;2022-07-29T08:22:00;25.60;99.90
9486;DHT22;4781;48.776;9.200;2022-07-29T08:24:28;25.80;99.90
9486;DHT22;4781;48.776;9.200;2022-07-29T08:27:13;25.80;99.90
9486;DHT22;4781;48.776;9.200;2022-07-29T08:29:41;26.10;99.90
9486;DHT22;4781;48.776;9.200;2022-07-29T08:32:10;26.10;99.90
9486;DHT22;4781;48.776;9.200;2022-07-29T08:34:38;26.20;99.90
9486;DHT22;4781;48.776;9.200;2022-07-29T08:37:06;26.10;99.90
9486;DHT22;4781;48.776;9.200;2022-07-29T08:39:35;26.00;99.90
9486;DHT22;4781;48.776;9.200;2022-07-29T08:42:03;26.20;99.90
9486;DHT22;4781;48.776;9.200;2022-07-29T08:44:33;26.30;99.90
9486;DHT22;4781;48.776;9.200;2022-07-29T08:47:02;26.30;99.90
9486;DHT22;4781;48.776;9.200;2022-07-29T08:49:33;26.20;99.90
9486;DHT22;4781;48.776;9.200;2022-07-29T08:52:02;26.20;99.90
9486;DHT22;4781;48.776;9.200;2022-07-29T08:54:31;26.20;99.90
9486;DHT22;4781;48.776;9.200;2022-07-29T08:57:00;26.50;99.90
9486;DHT22;4781;48.776;9.200;2022-07-29T08:59:30;26.30;99.90
9486;DHT22;4781;48.776;9.200;2022-07-29T09:02:01;26.60;99.90
9486;DHT22;4781;48.776;9.200;2022-07-29T09:04:33;26.80;99.90
9486;DHT22;4781;48.776;9.200;2022-07-29T09:07:04;27.10;99.90
9486;DHT22;4781;48.776;9.200;2022-07-29T09:09:34;27.20;99.90
9486;DHT22;4781;48.776;9.200;2022-07-29T09:12:04;27.40;99.90
9486;DHT22;4781;48.776;9.200;2022-07-29T09:14:34;27.00;99.90
9486;DHT22;4781;48.776;9.200;2022-07-29T09:17:03;26.80;99.90
9486;DHT22;4781;48.776;9.200;2022-07-29T09:19:33;27.00;99.90
9486;DHT22;4781;48.776;9.200;2022-07-29T09:22:06;27.40;99.90
9486;DHT22;4781;48.776;9.200;2022-07-29T09:24:42;27.50;99.90
9486;DHT22;4781;48.776;9.200;2022-07-29T09:27:23;27.60;99.90
9486;DHT22;4781;48.776;9.200;2022-07-29T09:30:01;27.40;99.90
9486;DHT22;4781;48.776;9.200;2022-07-29T09:32:53;27.20;99.90
9486;DHT22;4781;48.776;9.200;2022-07-29T09:35:26;26.80;99.90
9486;DHT22;4781;48.776;9.200;2022-07-29T09:37:56;27.00;99.90
9486;DHT22;4781;48.776;9.200;2022-07-29T09:40:26;27.20;99.90
9486;DHT22;4781;48.776;9.200;2022-07-29T09:42:55;27.30;99.90
9486;DHT22;4781;48.776;9.200;2022-07-29T09:45:28;27.70;99.90
9486;DHT22;4781;48.776;9.200;2022-07-29T09:47:59;27.90;99.90
9486;DHT22;4781;48.776;9.200;2022-07-29T09:50:39;27.90;99.90
9486;DHT22;4781;48.776;9.200;2022-07-29T09:53:10;27.90;99.90
9486;DHT22;4781;48.776;9.200;2022-07-29T09:55:51;28.20;99.90
9486;DHT22;4781;48.776;9.200;2022-07-29T09:58:21;28.30;99.90
9486;DHT22;4781;48.776;9.200;2022-07-29T10:00:51;28.30;99.90
9486;DHT22;4781;48.776;9.200;2022-07-29T10:03:22;28.30;99.90
9486;DHT22;4781;48.776;9.200;2022-07-29T10:06:10;28.30;99.90
9486;DHT22;4781;48.776;9.200;2022-07-29T10:08:41;28.10;99.90
9486;DHT22;4781;48.776;9.200;2022-07-29T10:11:17;28.60;99.90
9486;DHT22;4781;48.776;9.200;2022-07-29T10:13:45;28.30;99.90
9486;DHT22;4781;48.776;9.200;2022-07-29T10:16:15;28.40;99.90
9486;DHT22;4781;48.776;9.200;2022-07-29T10:18:44;28.60;99.90
9486;DHT22;4781;48.776;9.200;2022-07-29T10:21:13;28.70;99.90
9486;DHT22;4781;48.776;9.200;2022-07-29T10:23:42;28.70;99.40
9486;DHT22;4781;48.776;9.200;2022-07-29T10:26:11;28.70;99.70
9486;DHT22;4781;48.776;9.200;2022-07-29T10:28:41;28.60;99.90
9486;DHT22;4781;48.776;9.200;2022-07-29T10:31:13;28.40;99.50
9486;DHT22;4781;48.776;9.200;2022-07-29T10:36:53;28.10;99.90
9486;DHT22;4781;48.776;9.200;2022-07-29T10:39:42;28.00;99.90
9486;DHT22;4781;48.776;9.200;2022-07-29T10:42:28;27.60;99.90
9486;DHT22;4781;48.776;9.200;2022-07-29T10:44:58;27.20;99.90
9486;DHT22;4781;48.776;9.200;2022-07-29T10:47:27;26.60;99.90
9486;DHT22;4781;48.776;9.200;2022-07-29T10:49:58;25.90;99.90
9486;DHT22;4781;48.776;9.200;2022-07-29T10:52:55;25.60;99.90
9486;DHT22;4781;48.776;9.200;2022-07-29T10:58:22;24.50;99.90
9486;DHT22;4781;48.776;9.200;2022-07-29T11:00:53;23.20;99.90
9486;DHT22;4781;48.776;9.200;2022-07-29T11:06:12;21.90;99.90
9486;DHT22;4781;48.776;9.200;2022-07-29T11:08:41;21.40;99.90
9486;DHT22;4781;48.776;9.200;2022-07-29T11:13:53;20.40;99.90
9486;DHT22;4781;48.776;9.200;2022-07-29T11:16:24;19.80;99.90
9486;DHT22;4781;48.776;9.200;2022-07-29T11:19:18;19.20;99.90
9486;DHT22;4781;48.776;9.200;2022-07-29T11:21:44;18.90;99.90
9486;DHT22;4781;48.776;9.200;2022-07-29T11:27:06;18.70;99.90
9486;DHT22;4781;48.776;9.200;2022-07-29T11:32:38;19.00;99.90
9486;DHT22;4781;48.776;9.200;2022-07-29T11:35:22;18.80;99.90
9486;DHT22;4781;48.776;9.200;2022-07-29T11:38:25;18.20;99.90
9486;DHT22;4781;48.776;9.200;2022-07-29T11:41:22;18.20;99.90
9486;DHT22;4781;48.776;9.200;2022-07-29T11:43:56;18.30;99.90
9486;DHT22;4781;48.776;9.200;2022-07-29T11:46:50;18.10;99.90
9486;DHT22;4781;48.776;9.200;2022-07-29T11:49:25;18.00;99.90
9486;DHT22;4781;48.776;9.200;2022-07-29T11:51:58;18.00;99.90
9486;DHT22;4781;48.776;9.200;2022-07-29T11:54:34;18.10;99.90
9486;DHT22;4781;48.776;9.200;2022-07-29T11:57:06;18.10;99.90
9486;DHT22;4781;48.776;9.200;2022-07-29T11:59:42;18.30;99.90
9486;DHT22;4781;48.776;9.200;2022-07-29T12:02:13;18.30;99.90
9486;DHT22;4781;48.776;9.200;2022-07-29T12:04:53;18.40;99.90
9486;DHT22;4781;48.776;9.200;2022-07-29T12:07:32;18.40;99.90
9486;DHT22;4781;48.776;9.200;2022-07-29T12:10:01;18.60;99.90
9486;DHT22;4781;48.776;9.200;2022-07-29T12:12:30;18.70;99.90
9486;DHT22;4781;48.776;9.200;2022-07-29T12:15:16;18.70;99.90
9486;DHT22;4781;48.776;9.200;2022-07-29T12:17:48;18.90;99.90
9486;DHT22;4781;48.776;9.200;2022-07-29T12:20:24;18.50;99.90
9486;DHT22;4781;48.776;9.200;2022-07-29T12:22:56;18.80;99.90
9486;DHT22;4781;48.776;9.200;2022-07-29T12:25:25;18.90;99.90
9486;DHT22;4781;48.776;9.200;2022-07-29T12:28:02;18.90;99.90
9486;DHT22;4781;48.776;9.200;2022-07-29T12:30:43;18.90;99.90
9486;DHT22;4781;48.776;9.200;2022-07-29T12:33:24;19.00;99.90
9486;DHT22;4781;48.776;9.200;2022-07-29T12:36:00;19.20;99.90
9486;DHT22;4781;48.776;9.200;2022-07-29T12:38:29;19.30;99.90
9486;DHT22;4781;48.776;9.200;2022-07-29T12:40:57;19.40;99.90
9486;DHT22;4781;48.776;9.200;2022-07-29T12:43:26;19.40;99.90
9486;DHT22;4781;48.776;9.200;2022-07-29T12:45:56;19.40;99.90
9486;DHT22;4781;48.776;9.200;2022-07-29T12:48:41;19.50;99.90
9486;DHT22;4781;48.776;9.200;2022-07-29T12:51:11;19.50;99.90
9486;DHT22;4781;48.776;9.200;2022-07-29T12:53:41;19.40;99.90
9486;DHT22;4781;48.776;9.200;2022-07-29T12:56:15;19.30;99.90
9486;DHT22;4781;48.776;9.200;2022-07-29T12:58:44;19.20;99.90
9486;DHT22;4781;48.776;9.200;2022-07-29T13:01:16;19.10;99.90
9486;DHT22;4781;48.776;9.200;2022-07-29T13:03:56;18.90;99.90
9486;DHT22;4781;48.776;9.200;2022-07-29T13:09:08;18.80;99.90
9486;DHT22;4781;48.776;9.200;2022-07-29T13:11:42;18.90;99.90
9486;DHT22;4781;48.776;9.200;2022-07-29T13:19:52;18.90;99.90
9486;DHT22;4781;48.776;9.200;2022-07-29T13:22:23;18.90;99.90
9486;DHT22;4781;48.776;9.200;2022-07-29T13:24:54;18.90;99.90
9486;DHT22;4781;48.776;9.200;2022-07-29T13:27:26;18.80;99.90
9486;DHT22;4781;48.776;9.200;2022-07-29T13:29:56;18.80;99.90
9486;DHT22;4781;48.776;9.200;2022-07-29T13:32:27;18.70;99.90
9486;DHT22;4781;48.776;9.200;2022-07-29T13:34:57;18.70;99.90
9486;DHT22;4781;48.776;9.200;2022-07-29T13:37:27;18.60;99.90
9486;DHT22;4781;48.776;9.200;2022-07-29T13:39:56;18.60;99.90
9486;DHT22;4781;48.776;9.200;2022-07-29T13:42:26;18.50;99.90
9486;DHT22;4781;48.776;9.200;2022-07-29T13:44:54;18.60;99.90
9486;DHT22;4781;48.776;9.200;2022-07-29T13:47:23;18.60;99.90
9486;DHT22;4781;48.776;9.200;2022-07-29T13:49:52;18.70;99.90
9486;DHT22;4781;48.776;9.200;2022-07-29T13:52:20;18.70;99.90
9486;DHT22;4781;48.776;9.200;2022-07-29T13:54:49;18.80;99.90
9486;DHT22;4781;48.776;9.200;2022-07-29T13:57:17;18.80;99.90
9486;DHT22;4781;48.776;9.200;2022-07-29T13:59:46;18.90;99.90
9486;DHT22;4781;48.776;9.200;2022-07-29T14:02:14;19.00;99.90
9486;DHT22;4781;48.776;9.200;2022-07-29T14:04:42;19.20;99.90
9486;DHT22;4781;48.776;9.200;2022-07-29T14:07:11;19.30;99.90
9486;DHT22;4781;48.776;9.200;2022-07-29T14:09:39;19.40;99.90
9486;DHT22;4781;48.776;9.200;2022-07-29T14:12:08;19.70;99.90
9486;DHT22;4781;48.776;9.200;2022-07-29T14:14:37;19.80;99.90
9486;DHT22;4781;48.776;9.200;2022-07-29T14:17:05;19.90;99.90
9486;DHT22;4781;48.776;9.200;2022-07-29T14:19:34;19.90;99.90
9486;DHT22;4781;48.776;9.200;2022-07-29T14:22:04;20.00;99.90
9486;DHT22;4781;48.776;9.200;2022-07-29T14:24:34;20.20;99.90
9486;DHT22;4781;48.776;9.200;2022-07-29T14:27:03;20.20;99.90
9486;DHT22;4781;48.776;9.200;2022-07-29T14:29:32;20.30;99.90
9486;DHT22;4781;48.776;9.200;2022-07-29T14:32:01;20.40;99.90
9486;DHT22;4781;48.776;9.200;2022-07-29T14:34:30;20.50;99.90
9486;DHT22;4781;48.776;9.200;2022-07-29T14:36:58;20.50;99.90
9486;DHT22;4781;48.776;9.200;2022-07-29T14:39:27;20.60;99.90
9486;DHT22;4781;48.776;9.200;2022-07-29T14:41:55;20.70;99.90
9486;DHT22;4781;48.776;9.200;2022-07-29T14:44:24;20.70;99.90
9486;DHT22;4781;48.776;9.200;2022-07-29T14:46:54;20.70;99.90
9486;DHT22;4781;48.776;9.200;2022-07-29T14:49:22;20.70;99.90
9486;DHT22;4781;48.776;9.200;2022-07-29T14:51:50;20.80;99.90
9486;DHT22;4781;48.776;9.200;2022-07-29T14:54:19;20.90;99.90
9486;DHT22;4781;48.776;9.200;2022-07-29T14:56:47;20.90;99.90
9486;DHT22;4781;48.776;9.200;2022-07-29T14:59:17;21.00;99.90
9486;DHT22;4781;48.776;9.200;2022-07-29T15:01:45;21.00;99.90
9486;DHT22;4781;48.776;9.200;2022-07-29T15:04:14;21.00;99.90
9486;DHT22;4781;48.776;9.200;2022-07-29T15:06:42;21.00;99.90
9486;DHT22;4781;48.776;9.200;2022-07-29T15:09:10;21.00;99.90
9486;DHT22;4781;48.776;9.200;2022-07-29T15:11:39;21.10;99.90
9486;DHT22;4781;48.776;9.200;2022-07-29T15:14:07;21.10;99.90
9486;DHT22;4781;48.776;9.200;2022-07-29T15:16:37;21.10;99.90
9486;DHT22;4781;48.776;9.200;2022-07-29T15:19:08;21.10;99.90
9486;DHT22;4781;48.776;9.200;2022-07-29T15:21:37;21.10;99.90
9486;DHT22;4781;48.776;9.200;2022-07-29T15:24:05;21.20;99.90
9486;DHT22;4781;48.776;9.200;2022-07-29T15:26:34;21.20;99.90
9486;DHT22;4781;48.776;9.200;2022-07-29T15:29:02;21.20;99.90
9486;DHT22;4781;48.776;9.200;2022-07-29T15:31:31;21.20;99.90
9486;DHT22;4781;48.776;9.200;2022-07-29T15:33:59;21.30;99.90
9486;DHT22;4781;48.776;9.200;2022-07-29T15:36:28;21.30;99.90
9486;DHT22;4781;48.776;9.200;2022-07-29T15:38:57;21.30;99.90
9486;DHT22;4781;48.776;9.200;2022-07-29T15:41:29;21.30;99.90
9486;DHT22;4781;48.776;9.200;2022-07-29T15:43:58;21.40;99.90
9486;DHT22;4781;48.776;9.200;2022-07-29T15:46:26;21.40;99.90
9486;DHT22;4781;48.776;9.200;2022-07-29T15:49:12;21.30;99.90
9486;DHT22;4781;48.776;9.200;2022-07-29T15:51:40;21.40;99.90
9486;DHT22;4781;48.776;9.200;2022-07-29T15:54:09;21.40;99.90
9486;DHT22;4781;48.776;9.200;2022-07-29T15:56:38;21.40;99.90
9486;DHT22;4781;48.776;9.200;2022-07-29T15:59:07;21.40;99.90
9486;DHT22;4781;48.776;9.200;2022-07-29T16:01:35;21.40;99.90
9486;DHT22;4781;48.776;9.200;2022-07-29T16:04:03;21.50;99.90
9486;DHT22;4781;48.776;9.200;2022-07-29T16:06:32;21.50;99.90
9486;DHT22;4781;48.776;9.200;2022-07-29T16:09:00;21.50;99.90
9486;DHT22;4781;48.776;9.200;2022-07-29T16:11:29;21.50;99.90
9486;DHT22;4781;48.776;9.200;2022-07-29T16:16:47;21.60;99.90
9486;DHT22;4781;48.776;9.200;2022-07-29T16:19:16;21.60;99.90
9486;DHT22;4781;48.776;9.200;2022-07-29T16:21:44;21.60;99.90
9486;DHT22;4781;48.776;9.200;2022-07-29T16:24:12;21.60;99.90
9486;DHT22;4781;48.776;9.200;2022-07-29T16:26:41;21.60;99.90
9486;DHT22;4781;48.776;9.200;2022-07-29T16:29:09;21.60;99.90
9486;DHT22;4781;48.776;9.200;2022-07-29T16:31:37;21.60;99.90
9486;DHT22;4781;48.776;9.200;2022-07-29T16:34:06;21.60;99.90
9486;DHT22;4781;48.776;9.200;2022-07-29T16:36:34;21.60;99.90
9486;DHT22;4781;48.776;9.200;2022-07-29T16:39:03;21.60;99.90
9486;DHT22;4781;48.776;9.200;2022-07-29T16:41:31;21.60;99.90
9486;DHT22;4781;48.776;9.200;2022-07-29T16:43:59;21.60;99.90
9486;DHT22;4781;48.776;9.200;2022-07-29T16:46:28;21.60;99.90
9486;DHT22;4781;48.776;9.200;2022-07-29T16:48:57;21.50;99.90
9486;DHT22;4781;48.776;9.200;2022-07-29T16:51:25;21.50;99.90
9486;DHT22;4781;48.776;9.200;2022-07-29T16:53:55;21.50;99.90
9486;DHT22;4781;48.776;9.200;2022-07-29T16:56:23;21.50;99.90
9486;DHT22;4781;48.776;9.200;2022-07-29T16:58:52;21.50;99.90
9486;DHT22;4781;48.776;9.200;2022-07-29T17:01:20;21.40;99.90
9486;DHT22;4781;48.776;9.200;2022-07-29T17:03:49;21.40;99.90
9486;DHT22;4781;48.776;9.200;2022-07-29T17:06:37;21.30;99.90
9486;DHT22;4781;48.776;9.200;2022-07-29T17:09:07;21.30;99.90
9486;DHT22;4781;48.776;9.200;2022-07-29T17:11:37;21.40;99.90
9486;DHT22;4781;48.776;9.200;2022-07-29T17:14:07;21.30;99.90